createdAt,value
2018-10-21T00:00:16.022Z,99445.77
2018-10-21T00:02:45.239Z,99442.98
2018-10-21T00:05:14.460Z,99446.45
2018-10-21T00:07:43.684Z,99443.66
2018-10-21T00:10:12.903Z,99444.78
2018-10-21T00:12:42.100Z,99451.52
2018-10-21T00:15:11.593Z,99451.28
2018-10-21T00:17:40.696Z,99449.20
2018-10-21T00:20:09.934Z,99445.59
2018-10-21T00:22:39.120Z,99444.61
2018-10-21T00:25:08.336Z,99442.66
2018-10-21T00:27:37.515Z,99431.32
2018-10-21T00:30:07.227Z,99432.92
2018-10-21T00:32:41.676Z,99434.53
2018-10-21T00:35:10.856Z,99433.33
2018-10-21T00:37:40.040Z,99434.19
2018-10-21T00:40:09.243Z,99440.53
2018-10-21T00:42:38.591Z,99446.18
2018-10-21T00:45:08.429Z,99451.86
2018-10-21T00:47:37.583Z,99447.00
2018-10-21T00:50:08.449Z,99444.48
2018-10-21T00:52:37.642Z,99444.98
2018-10-21T00:55:07.851Z,99439.00
2018-10-21T00:57:37.040Z,99445.32
2018-10-21T01:00:09.332Z,99444.77
2018-10-21T01:02:38.719Z,99433.54
2018-10-21T01:05:09.111Z,99442.83
2018-10-21T01:07:38.439Z,99432.39
2018-10-21T01:10:09.911Z,99425.20
2018-10-21T01:12:39.127Z,99423.03
2018-10-21T01:15:10.649Z,99419.69
2018-10-21T01:17:39.708Z,99406.15
2018-10-21T01:20:11.503Z,99405.19
2018-10-21T01:22:41.622Z,99402.71
2018-10-21T01:25:11.144Z,99390.33
2018-10-21T01:27:41.356Z,99382.33
2018-10-21T01:30:12.092Z,99391.37
2018-10-21T01:32:41.263Z,99387.83
2018-10-21T01:35:10.442Z,99389.30
2018-10-21T01:37:39.677Z,99379.55
2018-10-21T01:40:44.423Z,99376.44
2018-10-21T01:43:15.468Z,99378.47
2018-10-21T01:45:44.675Z,99383.84
2018-10-21T01:48:15.080Z,99402.62
2018-10-21T01:50:44.282Z,99442.74
2018-10-21T01:53:14.394Z,99444.91
2018-10-21T01:55:43.612Z,99448.02
2018-10-21T01:58:12.799Z,99443.69
2018-10-21T02:00:42.438Z,99457.77
2018-10-21T02:03:11.880Z,99458.78
2018-10-21T02:05:41.728Z,99456.28
2018-10-21T02:08:10.941Z,99451.38
2018-10-21T02:10:40.119Z,99441.69
2018-10-21T02:13:09.345Z,99437.91
2018-10-21T02:15:38.503Z,99439.30
2018-10-21T02:18:07.729Z,99437.89
2018-10-21T02:20:36.923Z,99436.98
2018-10-21T02:23:06.245Z,99444.00
2018-10-21T02:25:35.411Z,99441.27
2018-10-21T02:28:04.638Z,99440.44
2018-10-21T02:30:33.800Z,99440.33
2018-10-21T02:33:03.038Z,99441.47
2018-10-21T02:35:32.192Z,99443.11
2018-10-21T02:38:01.395Z,99443.08
2018-10-21T02:41:46.463Z,99444.75
2018-10-21T02:44:18.722Z,99442.32
2018-10-21T02:46:48.756Z,99448.64
2018-10-21T02:49:18.452Z,99446.29
2018-10-21T02:51:52.942Z,99462.66
2018-10-21T02:54:26.074Z,99469.22
2018-10-21T02:56:55.423Z,99472.91
2018-10-21T02:59:25.080Z,99477.17
2018-10-21T03:01:54.271Z,99482.34
2018-10-21T03:04:23.879Z,99482.52
2018-10-21T03:06:53.284Z,99473.03
2018-10-21T03:09:22.609Z,99477.45
2018-10-21T03:11:51.680Z,99483.28
2018-10-21T03:14:20.900Z,99476.80
2018-10-21T03:16:50.160Z,99475.87
2018-10-21T03:19:19.377Z,99473.67
2018-10-21T03:21:48.603Z,99479.55
2018-10-21T03:24:18.185Z,99481.38
2018-10-21T03:26:48.405Z,99472.08
2018-10-21T03:29:17.624Z,99473.61
2018-10-21T03:31:46.826Z,99465.66
2018-10-21T03:34:16.039Z,99462.39
2018-10-21T03:36:45.252Z,99456.77
2018-10-21T03:39:14.466Z,99451.97
2018-10-21T03:41:43.674Z,99448.50
2018-10-21T03:44:12.899Z,99440.42
2018-10-21T03:46:42.099Z,99439.20
2018-10-21T03:49:11.324Z,99435.59
2018-10-21T03:51:40.540Z,99438.76
2018-10-21T03:54:09.760Z,99430.16
2018-10-21T03:56:38.971Z,99439.23
2018-10-21T03:59:08.187Z,99428.86
2018-10-21T04:01:37.408Z,99429.95
2018-10-21T04:04:07.083Z,99420.07
2018-10-21T04:06:36.276Z,99427.47
2018-10-21T04:09:07.707Z,99435.31
2018-10-21T04:11:36.888Z,99438.13
2018-10-21T04:14:06.079Z,99444.20
2018-10-21T04:16:35.262Z,99437.55
2018-10-21T04:19:04.464Z,99435.44
2018-10-21T04:21:33.639Z,99432.77
2018-10-21T04:24:02.832Z,99423.48
2018-10-21T04:26:32.025Z,99425.78
2018-10-21T04:29:01.203Z,99426.00
2018-10-21T04:31:30.399Z,99419.67
2018-10-21T04:33:59.575Z,99408.40
2018-10-21T04:36:31.043Z,99403.26
2018-10-21T04:39:43.146Z,99395.30
2018-10-21T04:42:12.339Z,99390.03
2018-10-21T04:44:41.522Z,99395.81
2018-10-21T04:47:10.774Z,99396.75
2018-10-21T04:49:39.894Z,99393.60
2018-10-21T04:52:09.091Z,99394.13
2018-10-21T04:54:38.261Z,99402.70
2018-10-21T04:57:08.305Z,99399.44
2018-10-21T04:59:38.607Z,99395.38
2018-10-21T05:02:07.816Z,99392.55
2018-10-21T05:04:37.051Z,99392.11
2018-10-21T05:07:06.235Z,99399.70
2018-10-21T05:09:35.423Z,99400.30
2018-10-21T05:12:04.890Z,99400.81
2018-10-21T05:14:34.126Z,99402.96
2018-10-21T05:17:03.331Z,99403.03
2018-10-21T05:19:32.536Z,99401.69
2018-10-21T05:22:01.793Z,99401.67
2018-10-21T05:24:30.983Z,99402.27
2018-10-21T05:27:00.197Z,99411.69
2018-10-21T05:29:29.408Z,99418.84
2018-10-21T05:31:58.615Z,99412.03
2018-10-21T05:34:28.054Z,99410.88
2018-10-21T05:36:57.311Z,99408.44
2018-10-21T05:39:26.523Z,99412.25
2018-10-21T05:41:55.735Z,99415.38
2018-10-21T05:44:24.947Z,99420.37
2018-10-21T05:46:54.297Z,99418.18
2018-10-21T05:49:23.367Z,99414.39
2018-10-21T05:51:52.756Z,99420.77
2018-10-21T05:54:22.003Z,99418.26
2018-10-21T05:56:51.870Z,99419.67
2018-10-21T05:59:21.079Z,99420.87
2018-10-21T06:01:50.296Z,99425.08
2018-10-21T06:04:19.508Z,99422.24
2018-10-21T06:06:48.715Z,99429.70
2018-10-21T06:09:17.930Z,99430.87
2018-10-21T06:11:47.115Z,99429.37
2018-10-21T06:14:16.299Z,99433.38
2018-10-21T06:16:52.834Z,99444.59
2018-10-21T06:19:29.379Z,99447.13
2018-10-21T06:21:58.576Z,99455.45
2018-10-21T06:24:28.079Z,99444.42
2018-10-21T06:26:57.273Z,99444.86
2018-10-21T06:29:26.447Z,99447.68
2018-10-21T06:31:55.633Z,99448.71
2018-10-21T06:34:24.972Z,99454.81
2018-10-21T06:36:54.313Z,99452.97
2018-10-21T06:39:23.348Z,99455.25
2018-10-21T06:41:52.891Z,99458.88
2018-10-21T06:44:22.100Z,99457.05
2018-10-21T06:46:51.297Z,99461.22
2018-10-21T06:49:20.480Z,99465.52
2018-10-21T06:51:49.660Z,99468.57
2018-10-21T06:54:18.850Z,99470.42
2018-10-21T06:56:48.331Z,99476.70
2018-10-21T06:59:17.384Z,99466.27
2018-10-21T07:01:46.563Z,99471.03
2018-10-21T07:04:15.821Z,99462.97
2018-10-21T07:06:44.906Z,99467.63
2018-10-21T07:09:14.104Z,99470.25
2018-10-21T07:11:43.323Z,99474.19
2018-10-21T07:14:12.543Z,99464.89
2018-10-21T07:16:42.016Z,99455.67
2018-10-21T07:19:10.987Z,99446.28
2018-10-21T07:21:40.187Z,99436.44
2018-10-21T07:24:09.394Z,99416.18
2018-10-21T07:26:38.599Z,99409.23
2018-10-21T07:29:07.803Z,99396.97
2018-10-21T07:31:37.007Z,99390.23
2018-10-21T07:34:06.243Z,99393.17
2018-10-21T07:36:35.428Z,99385.88
2018-10-21T07:39:07.009Z,99390.02
2018-10-21T07:41:36.219Z,99382.73
2018-10-21T07:44:05.695Z,99378.72
2018-10-21T07:46:35.019Z,99385.20
2018-10-21T07:49:04.319Z,99383.36
2018-10-21T07:51:33.494Z,99381.52
2018-10-21T07:54:02.753Z,99378.09
2018-10-21T07:56:31.924Z,99370.91
2018-10-21T07:59:01.112Z,99371.94
2018-10-21T08:01:30.357Z,99363.53
2018-10-21T08:03:59.526Z,99359.10
2018-10-21T08:06:45.915Z,99358.90
2018-10-21T08:09:15.108Z,99352.99
2018-10-21T08:11:44.274Z,99378.84
2018-10-21T08:14:13.452Z,99351.50
2018-10-21T08:16:42.726Z,99338.14
2018-10-21T08:19:11.874Z,99335.58
2018-10-21T08:21:41.079Z,99334.50
2018-10-21T08:24:10.255Z,99327.69
2018-10-21T08:26:39.462Z,99327.11
2018-10-21T08:29:08.638Z,99332.62
2018-10-21T08:31:37.817Z,99335.48
2018-10-21T08:34:07.050Z,99335.20
2018-10-21T08:36:36.215Z,99335.20
2018-10-21T08:39:07.208Z,99326.34
2018-10-21T08:41:36.411Z,99329.17
2018-10-21T08:44:05.587Z,99336.64
2018-10-21T08:46:34.801Z,99303.57
2018-10-21T08:49:04.034Z,99289.66
2018-10-21T08:51:33.167Z,99296.83
2018-10-21T08:54:02.351Z,99305.05
2018-10-21T08:56:31.550Z,99301.61
2018-10-21T08:59:00.722Z,99310.91
2018-10-21T09:01:29.915Z,99313.13
2018-10-21T09:03:59.220Z,99308.55
2018-10-21T09:06:28.339Z,99301.75
2018-10-21T09:08:57.556Z,99293.27
2018-10-21T09:11:26.784Z,99281.50
2018-10-21T09:13:56.008Z,99270.04
2018-10-21T09:16:25.255Z,99266.02
2018-10-21T09:18:54.481Z,99275.31
2018-10-21T09:21:23.684Z,99282.73
2018-10-21T09:23:52.959Z,99281.58
2018-10-21T09:26:22.139Z,99268.10
2018-10-21T09:28:51.368Z,99257.07
2018-10-21T09:31:20.596Z,99248.17
2018-10-21T09:33:50.152Z,99225.75
2018-10-21T09:36:19.361Z,99219.62
2018-10-21T09:38:48.591Z,99219.28
2018-10-21T09:41:17.828Z,99222.86
2018-10-21T09:43:47.039Z,99205.66
2018-10-21T09:46:16.392Z,99204.15
2018-10-21T09:48:45.555Z,99195.12
2018-10-21T09:51:14.788Z,99211.78
2018-10-21T09:53:44.007Z,99195.79
2018-10-21T09:56:13.234Z,99171.70
2018-10-21T09:58:42.498Z,99163.78
2018-10-21T10:01:17.079Z,99197.39
2018-10-21T10:03:46.308Z,99191.55
2018-10-21T10:06:15.472Z,99159.45
2018-10-21T10:08:44.727Z,99176.08
2018-10-21T10:11:13.935Z,99181.21
2018-10-21T10:13:43.147Z,99155.53
2018-10-21T10:16:12.492Z,99125.88
2018-10-21T10:18:41.864Z,99121.64
2018-10-21T10:21:11.089Z,99117.36
2018-10-21T10:23:40.303Z,99130.95
2018-10-21T10:26:09.508Z,99110.20
2018-10-21T10:28:38.835Z,99113.14
2018-10-21T10:31:08.129Z,99089.94
2018-10-21T10:33:37.264Z,99100.91
2018-10-21T10:36:06.900Z,99075.91
2018-10-21T10:38:36.064Z,99079.75
2018-10-21T10:41:05.659Z,99063.45
2018-10-21T10:43:34.864Z,98997.81
2018-10-21T10:46:04.096Z,98967.70
2018-10-21T10:48:33.300Z,98950.25
2018-10-21T10:51:02.519Z,98962.61
2018-10-21T10:53:31.722Z,98827.23
2018-10-21T10:56:00.947Z,98762.98
2018-10-21T10:58:30.159Z,98702.20
2018-10-21T11:00:59.382Z,98717.73
2018-10-21T11:03:28.579Z,98742.52
2018-10-21T11:05:57.800Z,98775.54
2018-10-21T11:08:27.006Z,98820.81
2018-10-21T11:10:56.227Z,98782.16
2018-10-21T11:13:25.445Z,98808.75
2018-10-21T11:15:54.699Z,98865.56
2018-10-21T11:18:23.872Z,98886.50
2018-10-21T11:20:53.084Z,98875.09
2018-10-21T11:23:22.350Z,98895.64
2018-10-21T11:25:51.567Z,98911.21
2018-10-21T11:28:20.835Z,98898.56
2018-10-21T11:30:49.983Z,98918.59
2018-10-21T11:33:19.196Z,98935.91
2018-10-21T11:35:48.412Z,98936.93
2018-10-21T11:38:17.632Z,98953.55
2018-10-21T11:40:46.938Z,98971.06
2018-10-21T11:43:16.135Z,98965.83
2018-10-21T11:45:45.453Z,98949.41
2018-10-21T11:48:14.584Z,98952.19
2018-10-21T11:50:43.798Z,98980.91
2018-10-21T11:53:13.004Z,99005.05
2018-10-21T11:55:42.902Z,98981.34
2018-10-21T11:58:13.381Z,99015.88
2018-10-21T12:00:43.346Z,99028.35
2018-10-21T12:03:12.938Z,99041.77
2018-10-21T12:05:42.967Z,99051.93
2018-10-21T12:08:12.605Z,99071.66
2018-10-21T12:10:41.818Z,99066.64
2018-10-21T12:13:11.059Z,99073.92
2018-10-21T12:15:40.225Z,99078.84
2018-10-21T12:18:09.672Z,99075.60
2018-10-21T12:20:39.269Z,99079.28
2018-10-21T12:23:08.569Z,99077.91
2018-10-21T12:25:37.842Z,99068.45
2018-10-21T12:28:06.994Z,99090.94
2018-10-21T12:30:36.159Z,99078.36
2018-10-21T12:33:05.592Z,99083.40
2018-10-21T12:35:34.782Z,99076.56
2018-10-21T12:38:04.015Z,99082.78
2018-10-21T12:40:33.219Z,99076.84
2018-10-21T12:43:02.434Z,99095.61
2018-10-21T12:45:31.705Z,99089.80
2018-10-21T12:48:00.844Z,99092.08
2018-10-21T12:50:30.048Z,99075.17
2018-10-21T12:52:59.341Z,99082.73
2018-10-21T12:55:28.523Z,99075.34
2018-10-21T12:57:57.750Z,99081.89
2018-10-21T13:00:26.944Z,99074.62
2018-10-21T13:02:56.155Z,99051.41
2018-10-21T13:05:25.359Z,99059.84
2018-10-21T13:07:54.585Z,99050.61
2018-10-21T13:10:23.785Z,99059.62
2018-10-21T13:12:53.075Z,99064.67
2018-10-21T13:15:22.220Z,99068.68
2018-10-21T13:17:51.436Z,99078.86
2018-10-21T13:20:20.646Z,99075.16
2018-10-21T13:22:49.883Z,99068.61
2018-10-21T13:25:19.183Z,99060.19
2018-10-21T13:27:48.294Z,99058.53
2018-10-21T13:30:17.492Z,99060.30
2018-10-21T13:32:46.689Z,99063.86
2018-10-21T13:35:15.948Z,99062.45
2018-10-21T13:37:45.126Z,99064.84
2018-10-21T13:40:14.381Z,99072.55
2018-10-21T13:42:43.559Z,99068.66
2018-10-21T13:45:12.763Z,99056.91
2018-10-21T13:47:41.968Z,99057.50
2018-10-21T13:50:11.171Z,99049.88
2018-10-21T13:52:40.479Z,99059.77
2018-10-21T13:55:09.632Z,99045.20
2018-10-21T13:57:38.819Z,99050.45
2018-10-21T14:00:09.119Z,99037.92
2018-10-21T14:02:38.399Z,99045.93
2018-10-21T14:05:08.230Z,99038.92
2018-10-21T14:07:37.436Z,99046.72
2018-10-21T14:10:06.665Z,99043.79
2018-10-21T14:12:35.818Z,99044.38
2018-10-21T14:15:05.464Z,99042.69
2018-10-21T14:17:34.622Z,99040.08
2018-10-21T14:20:03.839Z,99045.93
2018-10-21T14:22:33.016Z,99041.93
2018-10-21T14:25:02.248Z,99041.16
2018-10-21T14:27:31.409Z,99033.91
2018-10-21T14:30:00.732Z,99031.02
2018-10-21T14:32:29.855Z,99036.27
2018-10-21T14:34:59.063Z,99042.98
2018-10-21T14:37:28.261Z,99042.98
2018-10-21T14:39:57.427Z,99031.89
2018-10-21T14:42:26.610Z,99040.93
2018-10-21T14:44:55.810Z,99034.33
2018-10-21T14:47:24.977Z,99034.73
2018-10-21T14:49:54.159Z,99037.46
2018-10-21T14:52:23.348Z,99032.69
2018-10-21T14:54:52.839Z,99038.41
2018-10-21T14:57:22.007Z,99041.69
2018-10-21T14:59:51.183Z,99036.86
2018-10-21T15:02:20.376Z,99039.41
2018-10-21T15:04:49.570Z,99040.36
2018-10-21T15:07:18.750Z,99040.88
2018-10-21T15:09:47.979Z,99041.94
2018-10-21T15:12:17.175Z,99032.03
2018-10-21T15:14:46.363Z,99034.61
2018-10-21T15:17:15.593Z,99030.93
2018-10-21T15:19:44.831Z,99024.09
2018-10-21T15:22:14.072Z,99017.41
2018-10-21T15:24:43.262Z,99010.72
2018-10-21T15:27:12.474Z,99005.98
2018-10-21T15:29:41.691Z,98998.00
2018-10-21T15:32:10.962Z,98996.31
2018-10-21T15:34:40.148Z,98995.04
2018-10-21T15:37:09.330Z,98997.59
2018-10-21T15:39:38.592Z,98992.09
2018-10-21T15:42:07.754Z,98996.84
2018-10-21T15:44:36.967Z,98997.72
2018-10-21T15:47:06.782Z,99004.11
2018-10-21T15:49:36.809Z,99005.41
2018-10-21T15:52:06.038Z,99010.94
2018-10-21T15:54:35.259Z,99014.78
2018-10-21T15:57:04.474Z,99011.83
2018-10-21T15:59:33.687Z,99007.98
2018-10-21T16:02:02.947Z,99006.28
2018-10-21T16:04:32.125Z,99006.27
2018-10-21T16:07:01.349Z,98996.92
2018-10-21T16:09:30.572Z,99007.07
2018-10-21T16:11:59.856Z,99004.08
2018-10-21T16:14:29.087Z,99007.03
2018-10-21T16:16:58.289Z,99009.12
2018-10-21T16:19:27.512Z,99004.84
2018-10-21T16:21:56.757Z,99016.66
2018-10-21T16:24:25.942Z,99028.84
2018-10-21T16:26:55.155Z,99036.28
2018-10-21T16:29:24.380Z,99046.72
2018-10-21T16:31:53.628Z,99059.70
2018-10-21T16:34:22.836Z,99071.50
2018-10-21T16:36:52.055Z,99070.68
2018-10-21T16:39:21.276Z,99073.17
2018-10-21T16:41:50.488Z,99079.04
2018-10-21T16:44:19.772Z,99067.14
2018-10-21T16:46:48.981Z,99020.56
2018-10-21T16:49:18.220Z,99034.55
2018-10-21T16:51:47.496Z,99044.70
2018-10-21T16:54:16.852Z,99060.22
2018-10-21T16:56:45.993Z,99076.73
2018-10-21T16:59:15.367Z,99076.28
2018-10-21T17:01:44.494Z,99072.88
2018-10-21T17:04:13.719Z,99082.94
2018-10-21T17:06:42.951Z,99102.42
2018-10-21T17:09:14.116Z,99091.72
2018-10-21T17:11:43.888Z,99108.57
2018-10-21T17:14:13.108Z,99136.33
2018-10-21T17:16:42.316Z,99158.12
2018-10-21T17:19:11.619Z,99175.80
2018-10-21T17:21:40.920Z,99174.48
2018-10-21T17:24:10.399Z,99164.73
2018-10-21T17:26:39.712Z,99184.13
2018-10-21T17:29:08.947Z,99195.95
2018-10-21T17:31:38.167Z,99195.29
2018-10-21T17:34:07.404Z,99201.83
2018-10-21T17:36:36.631Z,99210.20
2018-10-21T17:39:13.808Z,99223.66
2018-10-21T17:41:43.279Z,99250.22
2018-10-21T17:44:13.083Z,99249.73
2018-10-21T17:46:42.366Z,99240.93
2018-10-21T17:49:11.530Z,99234.08
2018-10-21T17:51:40.747Z,99279.32
2018-10-21T17:54:09.955Z,99284.80
2018-10-21T17:56:44.469Z,99284.96
2018-10-21T17:59:13.666Z,99485.39
2018-10-21T18:01:42.878Z,99169.33
2018-10-21T18:04:12.144Z,99160.58
2018-10-21T18:06:41.327Z,99153.49
2018-10-21T18:09:12.124Z,99150.53
2018-10-21T18:11:41.350Z,99143.33
2018-10-21T18:14:10.527Z,99135.48
2018-10-21T18:16:39.719Z,99129.90
2018-10-21T18:19:09.091Z,99129.47
2018-10-21T18:21:38.199Z,99125.67
2018-10-21T18:24:07.432Z,99122.69
2018-10-21T18:26:36.620Z,99120.20
2018-10-21T18:29:06.441Z,99123.52
2018-10-21T18:31:35.654Z,99124.33
2018-10-21T18:34:04.936Z,99122.91
2018-10-21T18:36:34.097Z,99114.88
2018-10-21T18:39:03.690Z,99112.63
2018-10-21T18:41:32.902Z,99121.42
2018-10-21T18:44:02.107Z,99123.89
2018-10-21T18:46:31.331Z,99125.48
2018-10-21T18:49:00.598Z,99129.70
2018-10-21T18:51:29.735Z,99122.63
2018-10-21T18:54:01.956Z,99120.36
2018-10-21T18:56:31.172Z,99122.27
2018-10-21T18:59:00.366Z,99139.13
2018-10-21T19:01:29.591Z,99134.55
2018-10-21T19:03:58.842Z,99132.37
2018-10-21T19:06:28.000Z,99126.48
2018-10-21T19:08:57.216Z,99116.27
2018-10-21T19:11:26.418Z,99117.94
2018-10-21T19:13:55.603Z,99115.89
2018-10-21T19:16:24.803Z,99114.25
2018-10-21T19:18:53.986Z,99114.37
2018-10-21T19:21:23.151Z,99110.73
2018-10-21T19:23:52.323Z,99114.63
2018-10-21T19:26:21.585Z,99115.52
2018-10-21T19:28:50.806Z,99117.31
2018-10-21T19:31:20.248Z,99113.09
2018-10-21T19:33:49.609Z,99121.41
2018-10-21T19:36:18.791Z,99120.82
2018-10-21T19:38:48.032Z,99129.14
2018-10-21T19:41:17.303Z,99125.34
2018-10-21T19:43:46.647Z,99110.65
2018-10-21T19:46:15.936Z,99119.02
2018-10-21T19:48:45.236Z,99118.05
2018-10-21T19:51:14.503Z,99119.78
2018-10-21T19:53:43.704Z,99127.47
2018-10-21T19:56:12.872Z,99123.64
2018-10-21T19:58:42.078Z,99121.35
2018-10-21T20:01:11.280Z,99123.23
2018-10-21T20:03:40.454Z,99131.61
2018-10-21T20:06:09.655Z,99123.97
2018-10-21T20:08:38.913Z,99129.38
2018-10-21T20:11:08.264Z,99129.73
2018-10-21T20:13:37.531Z,99128.78
2018-10-21T20:16:06.911Z,99125.42
2018-10-21T20:18:36.131Z,99128.01
2018-10-21T20:21:05.822Z,99135.34
2018-10-21T20:23:35.189Z,99126.87
2018-10-21T20:26:04.369Z,99126.64
2018-10-21T20:28:33.648Z,99127.17
2018-10-21T20:31:02.860Z,99125.89
2018-10-21T20:33:32.027Z,99129.59
2018-10-21T20:36:01.361Z,99128.17
2018-10-21T20:38:30.784Z,99128.41
2018-10-21T20:40:59.900Z,99135.29
2018-10-21T20:43:29.225Z,99142.55
2018-10-21T20:45:58.442Z,99137.96
2018-10-21T20:48:27.622Z,99137.96
2018-10-21T20:50:56.860Z,99135.53
2018-10-21T20:53:25.994Z,99137.77
2018-10-21T20:55:55.171Z,99146.33
2018-10-21T20:58:24.420Z,99142.05
2018-10-21T21:00:53.527Z,99143.78
2018-10-21T21:03:22.706Z,99142.55
2018-10-21T21:05:51.887Z,99142.13
2018-10-21T21:08:21.151Z,99140.52
2018-10-21T21:10:50.245Z,99135.52
2018-10-21T21:13:19.427Z,99130.57
2018-10-21T21:15:48.604Z,99134.77
2018-10-21T21:18:17.891Z,99128.88
2018-10-21T21:20:47.214Z,99134.33
2018-10-21T21:23:16.327Z,99133.22
2018-10-21T21:25:45.499Z,99131.59
2018-10-21T21:28:14.713Z,99126.06
2018-10-21T21:30:43.931Z,99126.48
2018-10-21T21:33:13.031Z,99132.11
2018-10-21T21:35:42.439Z,99131.47
2018-10-21T21:38:11.659Z,99139.30
2018-10-21T21:40:40.835Z,99139.95
2018-10-21T21:43:10.024Z,99140.88
2018-10-21T21:45:39.199Z,99137.78
2018-10-21T21:48:08.385Z,99137.34
2018-10-21T21:50:37.562Z,99143.21
2018-10-21T21:53:06.741Z,99139.78
2018-10-21T21:55:35.895Z,99142.70
2018-10-21T21:58:05.460Z,99140.66
2018-10-21T22:00:34.565Z,99135.13
2018-10-21T22:03:03.760Z,99136.34
2018-10-21T22:05:32.952Z,99136.25
2018-10-21T22:08:02.134Z,99134.99
2018-10-21T22:10:31.392Z,99129.46
2018-10-21T22:13:00.558Z,99132.98
2018-10-21T22:15:29.775Z,99129.91
2018-10-21T22:17:59.006Z,99136.33
2018-10-21T22:20:28.197Z,99135.20
2018-10-21T22:22:57.412Z,99150.39
2018-10-21T22:25:26.699Z,99154.59
2018-10-21T22:27:55.941Z,99143.25
2018-10-21T22:30:25.110Z,99141.95
2018-10-21T22:32:54.338Z,99129.56
2018-10-21T22:35:23.551Z,99130.63
2018-10-21T22:37:52.768Z,99128.75
2018-10-21T22:40:21.982Z,99141.16
2018-10-21T22:42:51.192Z,99139.78
2018-10-21T22:45:20.400Z,99145.48
2018-10-21T22:47:49.620Z,99149.35
2018-10-21T22:50:18.831Z,99157.44
2018-10-21T22:52:48.048Z,99157.49
2018-10-21T22:55:17.251Z,99157.97
2018-10-21T22:57:46.451Z,99168.16
2018-10-21T23:00:15.760Z,99157.69
2018-10-21T23:02:48.947Z,99161.95
2018-10-21T23:05:18.156Z,99151.66
2018-10-21T23:07:47.364Z,99147.88
2018-10-21T23:10:17.030Z,99124.89
2018-10-21T23:12:46.124Z,99120.12
2018-10-21T23:15:15.331Z,99124.59
2018-10-21T23:17:44.549Z,99128.81
2018-10-21T23:20:13.751Z,99137.80
2018-10-21T23:22:42.947Z,99124.34
2018-10-21T23:25:12.152Z,99144.39
2018-10-21T23:27:41.359Z,99162.37
2018-10-21T23:30:10.652Z,99167.05
2018-10-21T23:32:39.780Z,99157.75
2018-10-21T23:35:08.998Z,99143.19
2018-10-21T23:37:38.204Z,99138.77
2018-10-21T23:40:08.266Z,99134.95
2018-10-21T23:42:37.407Z,99131.72
2018-10-21T23:45:06.766Z,99125.30
2018-10-21T23:47:35.975Z,99128.00
2018-10-21T23:50:05.711Z,99133.64
2018-10-21T23:52:34.912Z,99146.39
2018-10-21T23:55:04.130Z,99152.09
2018-10-21T23:57:33.342Z,99144.46
